Terminal Aerodrome Forecast
Issued by NWS

Current Version | Previous Version | Text Only | Print | Product List | Glossary On
Versions: 1 2 3 4 5 6 7 8 9 10 11 12 13 14 15
119
FTUS41 KLWX 262330
TAFMTN
TAF
KMTN 262330Z 2700/2724 09009KT 2SM -DZ OVC008
     FM270600 12006KT 1SM -DZ BR OVC003 WS020/18030KT
     FM270900 16006KT 1SM -DZ BR OVC003 WS020/20035KT
     FM271200 19007KT P6SM BKN003
     FM271300 19007KT P6SM BKN008
     FM271700 22008KT P6SM BKN050
      AMD NOT SKED 2702/2712=

USA.gov is the U.S. government's official web portal to all federal, state and local government web resources and services.